Time;durP1;ratioP1;P1;durP2;ratioP2;P2;SDS_P1;SDS_P2;PMS_P1;PMS_P2;Temp;Humidity;BMP_temperature;BMP_pressure;BME280_temperature;BME280_humidity;BME280_pressure;Samples;Min_cycle;Max_cycle;Signal;HPM_P1;HPM_P2
2022/08/13 00:01:14;;;;;;;0.90;0.90;;;;;;;;;;4996059;28;21018;-73
2022/08/13 00:03:40;;;;;;;0.80;0.80;;;;;;;;;;4994707;28;20421;-73
2022/08/13 00:06:08;;;;;;;0.90;0.90;;;;;;;;;;4999506;28;20425;-73
2022/08/13 00:08:35;;;;;;;1.00;1.00;;;;;;;;;;4997072;28;20529;-73
2022/08/13 00:11:01;;;;;;;0.90;0.90;;;;;;;;;;5008151;28;21173;-73
2022/08/13 00:13:27;;;;;;;0.90;0.90;;;;;;;;;;5016821;28;20430;-73
2022/08/13 00:15:53;;;;;;;0.80;0.80;;;;;;;;;;5000539;28;20414;-73
2022/08/13 00:18:20;;;;;;;0.88;0.88;;;;;;;;;;5011309;28;20423;-74
2022/08/13 00:20:48;;;;;;;0.90;0.90;;;;;;;;;;5007435;28;21555;-73
2022/08/13 00:23:14;;;;;;;0.90;0.90;;;;;;;;;;4961642;28;21137;-72
2022/08/13 00:25:40;;;;;;;0.90;0.90;;;;;;;;;;4999929;28;20443;-73
2022/08/13 00:28:06;;;;;;;0.90;0.90;;;;;;;;;;4988473;28;20422;-73
2022/08/13 00:30:33;;;;;;;0.80;0.80;;;;;;;;;;5012081;28;20479;-73
2022/08/13 00:33:12;;;;;;;0.90;0.90;;;;;;;;;;4987865;28;20459;-73
2022/08/13 00:35:40;;;;;;;0.90;0.90;;;;;;;;;;5007197;28;20433;-72
2022/08/13 00:38:11;;;;;;;0.90;0.90;;;;;;;;;;5004587;28;20430;-73
2022/08/13 00:40:41;;;;;;;0.90;0.90;;;;;;;;;;4990842;28;20808;-73
2022/08/13 00:43:07;;;;;;;1.00;1.00;;;;;;;;;;4986853;28;21330;-73
2022/08/13 00:45:33;;;;;;;1.00;1.00;;;;;;;;;;5005481;28;20456;-73
2022/08/13 00:50:44;;;;;;;0.90;0.90;;;;;;;;;;5007540;28;20475;-73
2022/08/13 00:53:16;;;;;;;1.00;1.00;;;;;;;;;;4980360;28;20438;-73
2022/08/13 00:55:43;;;;;;;1.00;1.00;;;;;;;;;;4999784;28;20905;-73
2022/08/13 00:58:10;;;;;;;1.00;1.00;;;;;;;;;;4999246;28;20427;-73
2022/08/13 01:00:36;;;;;;;0.90;0.90;;;;;;;;;;4989371;28;21069;-73
2022/08/13 01:03:02;;;;;;;0.90;0.90;;;;;;;;;;4999977;28;20413;-73
2022/08/13 01:05:28;;;;;;;1.00;1.00;;;;;;;;;;4984166;28;20413;-73
2022/08/13 01:07:54;;;;;;;1.00;1.00;;;;;;;;;;4966514;28;20454;-73
2022/08/13 01:10:20;;;;;;;0.90;0.90;;;;;;;;;;4983603;28;20418;-73
2022/08/13 01:12:47;;;;;;;1.00;1.00;;;;;;;;;;5010981;28;20423;-72
2022/08/13 01:15:13;;;;;;;0.90;0.90;;;;;;;;;;4975394;28;20413;-72
2022/08/13 01:17:45;;;;;;;0.90;0.90;;;;;;;;;;4986875;28;20484;-73
2022/08/13 01:20:14;;;;;;;0.90;0.90;;;;;;;;;;4979068;28;20431;-73
2022/08/13 01:22:41;;;;;;;0.93;0.93;;;;;;;;;;4990733;28;20415;-73
2022/08/13 01:25:07;;;;;;;1.00;1.00;;;;;;;;;;5004088;28;20858;-73
2022/08/13 01:27:37;;;;;;;0.90;0.90;;;;;;;;;;4984728;28;20431;-73
2022/08/13 01:30:05;;;;;;;0.90;0.90;;;;;;;;;;4973822;28;20462;-73
2022/08/13 01:32:31;;;;;;;0.90;0.90;;;;;;;;;;4996403;28;20433;-73
2022/08/13 01:34:58;;;;;;;1.00;1.00;;;;;;;;;;4988689;28;21006;-73
2022/08/13 01:37:24;;;;;;;0.90;0.90;;;;;;;;;;4984846;28;20445;-73
2022/08/13 01:39:50;;;;;;;0.90;0.90;;;;;;;;;;4983135;28;20424;-73
2022/08/13 01:42:20;;;;;;;0.90;0.90;;;;;;;;;;5015893;28;20480;-73
2022/08/13 01:44:46;;;;;;;0.90;0.90;;;;;;;;;;5001541;28;20507;-74
2022/08/13 01:52:41;;;;;;;1.00;1.00;;;;;;;;;;4991040;28;20948;-73
2022/08/13 01:55:07;;;;;;;0.90;0.90;;;;;;;;;;5005512;28;20428;-73
2022/08/13 01:57:34;;;;;;;0.90;0.90;;;;;;;;;;4996724;28;21151;-73
2022/08/13 02:00:00;;;;;;;0.90;0.90;;;;;;;;;;4976014;28;20931;-73
2022/08/13 02:02:27;;;;;;;1.00;1.00;;;;;;;;;;5001614;28;20824;-73
2022/08/13 02:04:53;;;;;;;0.90;0.90;;;;;;;;;;4992148;28;20440;-73
2022/08/13 02:07:19;;;;;;;0.90;0.90;;;;;;;;;;5001926;28;20433;-73
2022/08/13 02:09:45;;;;;;;0.90;0.90;;;;;;;;;;4984420;28;20425;-73
2022/08/13 02:12:13;;;;;;;1.00;1.00;;;;;;;;;;4994107;28;20494;-73
2022/08/13 02:14:42;;;;;;;0.90;0.90;;;;;;;;;;4994276;28;20754;-73
2022/08/13 02:17:24;;;;;;;0.90;0.90;;;;;;;;;;5006084;28;20424;-73
2022/08/13 02:19:51;;;;;;;0.90;0.90;;;;;;;;;;4987265;28;20428;-73
2022/08/13 02:22:17;;;;;;;0.90;0.90;;;;;;;;;;5005658;28;20411;-72
2022/08/13 02:24:48;;;;;;;0.90;0.90;;;;;;;;;;4992378;28;20849;-73
2022/08/13 02:27:15;;;;;;;1.00;1.00;;;;;;;;;;5003912;28;20775;-72
2022/08/13 02:29:43;;;;;;;1.00;1.00;;;;;;;;;;4999592;28;20994;-73
2022/08/13 02:32:10;;;;;;;0.90;0.90;;;;;;;;;;5000106;28;20509;-73
2022/08/13 02:34:39;;;;;;;0.90;0.90;;;;;;;;;;4995408;28;20550;-73
2022/08/13 02:37:05;;;;;;;0.90;0.90;;;;;;;;;;4980096;28;20421;-73
2022/08/13 02:39:31;;;;;;;0.90;0.90;;;;;;;;;;4986129;28;20481;-73
2022/08/13 02:41:57;;;;;;;0.90;0.90;;;;;;;;;;4997975;28;20415;-73
2022/08/13 02:44:25;;;;;;;0.90;0.90;;;;;;;;;;5003211;28;20416;-73
2022/08/13 02:46:51;;;;;;;0.80;0.80;;;;;;;;;;5001309;28;20816;-73
2022/08/13 02:49:17;;;;;;;0.88;0.88;;;;;;;;;;4998836;28;20413;-73
2022/08/13 02:51:43;;;;;;;0.90;0.90;;;;;;;;;;4994979;28;20939;-73
2022/08/13 02:54:10;;;;;;;0.90;0.90;;;;;;;;;;4996233;28;20426;-73
2022/08/13 02:56:36;;;;;;;0.90;0.90;;;;;;;;;;4997566;28;20442;-73
2022/08/13 02:59:03;;;;;;;0.88;0.88;;;;;;;;;;4995478;28;20411;-73
2022/08/13 03:01:29;;;;;;;0.80;0.80;;;;;;;;;;4978081;28;20472;-73
2022/08/13 03:03:55;;;;;;;0.82;0.82;;;;;;;;;;5001810;28;20938;-73
2022/08/13 03:06:21;;;;;;;0.80;0.80;;;;;;;;;;4980008;28;20915;-73
2022/08/13 03:08:51;;;;;;;0.88;0.88;;;;;;;;;;4989638;28;20413;-73
2022/08/13 03:11:17;;;;;;;0.90;0.90;;;;;;;;;;4989916;28;20500;-72
2022/08/13 03:13:48;;;;;;;0.80;0.80;;;;;;;;;;4967566;28;20857;-73
2022/08/13 03:16:15;;;;;;;0.90;0.90;;;;;;;;;;4977546;28;20428;-72
2022/08/13 03:18:41;;;;;;;0.80;0.80;;;;;;;;;;4984134;28;20552;-73
2022/08/13 03:21:07;;;;;;;0.90;0.90;;;;;;;;;;4987165;28;21109;-73
2022/08/13 03:23:33;;;;;;;0.80;0.80;;;;;;;;;;4987334;28;20425;-73
2022/08/13 03:25:59;;;;;;;0.90;0.90;;;;;;;;;;5001743;28;20505;-73
2022/08/13 03:28:25;;;;;;;0.90;0.90;;;;;;;;;;4971690;28;20424;-72
2022/08/13 03:30:51;;;;;;;0.95;0.95;;;;;;;;;;4997308;28;20853;-73
2022/08/13 03:33:17;;;;;;;0.80;0.80;;;;;;;;;;4999850;28;20439;-72
2022/08/13 03:35:44;;;;;;;0.90;0.90;;;;;;;;;;4985247;28;20953;-73
2022/08/13 03:38:11;;;;;;;0.90;0.90;;;;;;;;;;4990266;28;20509;-73
2022/08/13 03:43:22;;;;;;;0.90;0.90;;;;;;;;;;4999886;28;20441;-73
2022/08/13 03:45:48;;;;;;;0.80;0.80;;;;;;;;;;4985113;28;20429;-72
2022/08/13 03:48:14;;;;;;;0.90;0.90;;;;;;;;;;4989890;28;20419;-73
2022/08/13 03:50:42;;;;;;;0.90;0.90;;;;;;;;;;5002126;28;20417;-72
2022/08/13 03:53:09;;;;;;;0.80;0.80;;;;;;;;;;5011715;28;20436;-73
2022/08/13 03:55:37;;;;;;;0.85;0.85;;;;;;;;;;4996146;28;20545;-72
2022/08/13 03:58:03;;;;;;;0.90;0.90;;;;;;;;;;5004343;28;20421;-73
2022/08/13 04:00:30;;;;;;;0.90;0.90;;;;;;;;;;4987608;28;20919;-73
2022/08/13 04:02:56;;;;;;;0.80;0.80;;;;;;;;;;5004607;28;20784;-73
2022/08/13 04:05:22;;;;;;;0.90;0.90;;;;;;;;;;5000006;28;20977;-73
2022/08/13 04:07:50;;;;;;;0.90;0.90;;;;;;;;;;4978582;28;20504;-73
2022/08/13 04:10:16;;;;;;;0.90;0.90;;;;;;;;;;4998247;28;20422;-73
2022/08/13 04:12:42;;;;;;;0.90;0.90;;;;;;;;;;4988370;28;20521;-73
2022/08/13 04:15:08;;;;;;;0.80;0.80;;;;;;;;;;4990990;28;21166;-73
2022/08/13 04:17:36;;;;;;;0.90;0.90;;;;;;;;;;4999954;28;20427;-73
2022/08/13 04:20:02;;;;;;;0.90;0.90;;;;;;;;;;4987744;28;20407;-73
2022/08/13 04:22:28;;;;;;;0.90;0.90;;;;;;;;;;5006099;28;21018;-73
2022/08/13 04:24:54;;;;;;;0.90;0.90;;;;;;;;;;4995592;28;20456;-73
2022/08/13 04:27:20;;;;;;;0.85;0.85;;;;;;;;;;4983492;28;21147;-73
2022/08/13 04:29:48;;;;;;;0.90;0.90;;;;;;;;;;4954329;28;20446;-73
2022/08/13 04:32:14;;;;;;;0.80;0.80;;;;;;;;;;4998547;28;20611;-73
2022/08/13 04:34:40;;;;;;;0.90;0.90;;;;;;;;;;4993263;28;21034;-73
2022/08/13 04:37:07;;;;;;;0.80;0.80;;;;;;;;;;4980502;28;20496;-73
2022/08/13 04:39:33;;;;;;;0.90;0.90;;;;;;;;;;4997023;28;20420;-72
2022/08/13 04:42:00;;;;;;;0.90;0.90;;;;;;;;;;4988842;28;20974;-72
2022/08/13 04:44:26;;;;;;;0.90;0.90;;;;;;;;;;4971833;28;20409;-73
2022/08/13 04:46:53;;;;;;;0.88;0.88;;;;;;;;;;4998160;28;20422;-72
2022/08/13 04:49:19;;;;;;;0.85;0.85;;;;;;;;;;5004302;28;20412;-73
2022/08/13 04:51:45;;;;;;;0.90;0.90;;;;;;;;;;4984163;28;20435;-72
2022/08/13 04:54:11;;;;;;;0.90;0.90;;;;;;;;;;4987846;28;20462;-73
2022/08/13 04:56:37;;;;;;;0.90;0.90;;;;;;;;;;4986562;28;20446;-72
2022/08/13 04:59:04;;;;;;;0.90;0.90;;;;;;;;;;5002989;28;20405;-73
2022/08/13 05:01:30;;;;;;;0.80;0.80;;;;;;;;;;5002703;28;20770;-73
2022/08/13 05:03:56;;;;;;;0.90;0.90;;;;;;;;;;4989494;28;20532;-73
2022/08/13 05:06:22;;;;;;;0.90;0.90;;;;;;;;;;4979872;28;20418;-72
2022/08/13 05:08:48;;;;;;;0.90;0.90;;;;;;;;;;4956669;28;20430;-72
2022/08/13 05:11:14;;;;;;;0.80;0.80;;;;;;;;;;4991240;28;20453;-70
2022/08/13 05:13:40;;;;;;;0.88;0.88;;;;;;;;;;4993370;28;20445;-72
2022/08/13 05:16:07;;;;;;;0.90;0.90;;;;;;;;;;4984394;28;20577;-73
2022/08/13 05:18:37;;;;;;;0.80;0.80;;;;;;;;;;4967686;28;20419;-73
2022/08/13 05:21:04;;;;;;;0.80;0.80;;;;;;;;;;4982974;28;20439;-71
2022/08/13 05:23:30;;;;;;;0.83;0.83;;;;;;;;;;4997484;28;20432;-73
2022/08/13 05:25:58;;;;;;;0.80;0.80;;;;;;;;;;4988001;28;20419;-66
2022/08/13 05:28:24;;;;;;;0.90;0.90;;;;;;;;;;4994273;28;20428;-67
2022/08/13 05:30:51;;;;;;;0.80;0.80;;;;;;;;;;4990998;28;20466;-66
2022/08/13 05:33:26;;;;;;;0.80;0.80;;;;;;;;;;5000513;28;21167;-72
2022/08/13 05:35:53;;;;;;;0.80;0.80;;;;;;;;;;4971196;28;21898;-72
2022/08/13 05:38:22;;;;;;;0.80;0.80;;;;;;;;;;5000557;28;20758;-73
2022/08/13 05:40:52;;;;;;;0.80;0.80;;;;;;;;;;4991027;28;20540;-72
2022/08/13 05:43:19;;;;;;;0.80;0.80;;;;;;;;;;4994951;28;20449;-71
2022/08/13 05:45:49;;;;;;;0.80;0.80;;;;;;;;;;5001538;28;20431;-71
2022/08/13 05:48:15;;;;;;;0.88;0.88;;;;;;;;;;5006729;28;21005;-72
2022/08/13 05:50:45;;;;;;;0.90;0.90;;;;;;;;;;5012356;28;20425;-72
2022/08/13 05:53:11;;;;;;;0.88;0.88;;;;;;;;;;5009061;28;20736;-73
2022/08/13 05:55:38;;;;;;;0.80;0.80;;;;;;;;;;5006617;28;20553;-73
2022/08/13 05:58:04;;;;;;;0.90;0.90;;;;;;;;;;5004215;28;20516;-73
2022/08/13 06:03:31;;;;;;;0.90;0.90;;;;;;;;;;5025881;28;20557;-71
2022/08/13 06:06:00;;;;;;;0.90;0.90;;;;;;;;;;5012053;28;21014;-72
2022/08/13 06:08:28;;;;;;;0.90;0.90;;;;;;;;;;5007823;28;20418;-72
2022/08/13 06:10:55;;;;;;;0.80;0.80;;;;;;;;;;5009592;28;20414;-71
2022/08/13 06:13:21;;;;;;;0.90;0.90;;;;;;;;;;5000815;28;20429;-71
2022/08/13 06:15:57;;;;;;;0.80;0.80;;;;;;;;;;4992378;28;20484;-72
2022/08/13 06:18:24;;;;;;;0.80;0.80;;;;;;;;;;5023525;28;20442;-72
2022/08/13 06:20:50;;;;;;;0.80;0.80;;;;;;;;;;5011770;22;20996;-54
2022/08/13 06:23:16;;;;;;;0.80;0.80;;;;;;;;;;5043388;28;21043;-56
2022/08/13 06:25:42;;;;;;;0.90;0.90;;;;;;;;;;5031478;28;20419;-57
2022/08/13 06:28:10;;;;;;;0.90;0.90;;;;;;;;;;5035704;28;20907;-55
2022/08/13 06:30:37;;;;;;;0.90;0.90;;;;;;;;;;5016047;28;21039;-57
2022/08/13 06:33:04;;;;;;;0.80;0.80;;;;;;;;;;5024177;28;20438;-55
2022/08/13 06:35:31;;;;;;;0.90;0.90;;;;;;;;;;5022180;28;20482;-57
2022/08/13 06:37:57;;;;;;;0.90;0.90;;;;;;;;;;5023462;28;20486;-55
2022/08/13 06:40:23;;;;;;;0.88;0.88;;;;;;;;;;5005727;28;20420;-55
2022/08/13 06:42:50;;;;;;;0.80;0.80;;;;;;;;;;5011652;28;20428;-55
2022/08/13 06:45:16;;;;;;;0.80;0.80;;;;;;;;;;5013704;28;20448;-56
2022/08/13 06:47:43;;;;;;;0.90;0.90;;;;;;;;;;5012960;28;20534;-55
2022/08/13 06:50:10;;;;;;;0.80;0.80;;;;;;;;;;5017973;28;20867;-55
2022/08/13 06:52:37;;;;;;;0.90;0.90;;;;;;;;;;5030918;28;20445;-54
2022/08/13 06:55:03;;;;;;;0.90;0.90;;;;;;;;;;5022100;28;20424;-55
2022/08/13 06:57:30;;;;;;;0.90;0.90;;;;;;;;;;5025483;28;20409;-54
2022/08/13 06:59:57;;;;;;;0.80;0.80;;;;;;;;;;5011702;28;20418;-55
2022/08/13 07:02:23;;;;;;;0.90;0.90;;;;;;;;;;5026462;28;20761;-55
2022/08/13 07:04:49;;;;;;;0.93;0.93;;;;;;;;;;5019597;28;20452;-55
2022/08/13 07:07:17;;;;;;;0.90;0.90;;;;;;;;;;5015267;28;20477;-54
2022/08/13 07:09:44;;;;;;;0.82;0.82;;;;;;;;;;5033008;28;20420;-55
2022/08/13 07:12:13;;;;;;;0.90;0.90;;;;;;;;;;5023301;28;20456;-51
2022/08/13 07:14:43;;;;;;;0.90;0.90;;;;;;;;;;5015137;28;20425;-52
2022/08/13 07:17:10;;;;;;;0.93;0.93;;;;;;;;;;5029100;28;21255;-57
2022/08/13 07:19:37;;;;;;;1.02;1.02;;;;;;;;;;5027510;28;20477;-55
2022/08/13 07:22:03;;;;;;;1.08;1.08;;;;;;;;;;5024601;28;20425;-52
2022/08/13 07:24:29;;;;;;;1.00;1.00;;;;;;;;;;5017664;28;20473;-50
2022/08/13 07:26:59;;;;;;;1.00;1.00;;;;;;;;;;5022491;28;20429;-51
2022/08/13 07:29:26;;;;;;;1.00;1.00;;;;;;;;;;5020868;28;20411;-51
2022/08/13 07:31:54;;;;;;;1.05;1.05;;;;;;;;;;5025155;28;20432;-53
2022/08/13 07:34:21;;;;;;;0.90;0.90;;;;;;;;;;5028096;28;20417;-51
2022/08/13 09:37:33;;;;;;;1.38;1.38;;;;;;;;;;5053291;27;20555;-61
2022/08/13 09:40:04;;;;;;;7.03;1.38;;;;;;;;;;5060390;28;20313;-58
2022/08/13 09:42:33;;;;;;;1.00;1.00;;;;;;;;;;5035964;28;20247;-57
2022/08/13 09:45:00;;;;;;;0.90;0.90;;;;;;;;;;5047886;28;20214;-60
2022/08/13 09:47:26;;;;;;;0.60;0.60;;;;;;;;;;5045534;28;20239;-59
2022/08/13 09:49:52;;;;;;;0.88;0.88;;;;;;;;;;5060867;28;20607;-61
2022/08/13 09:52:19;;;;;;;0.80;0.80;;;;;;;;;;5039591;28;20235;-61
2022/08/13 09:54:45;;;;;;;0.90;0.90;;;;;;;;;;5039755;28;20680;-59
2022/08/13 09:57:10;;;;;;;0.90;0.90;;;;;;;;;;5049611;27;20231;-59
2022/08/13 09:59:36;;;;;;;0.80;0.80;;;;;;;;;;5058016;27;20990;-62
2022/08/13 10:02:09;;;;;;;0.80;0.80;;;;;;;;;;5028575;28;20227;-66
2022/08/13 10:04:37;;;;;;;0.80;0.80;;;;;;;;;;5054812;28;20249;-64
2022/08/13 10:07:03;;;;;;;0.80;0.80;;;;;;;;;;5036288;28;20277;-66
2022/08/13 10:09:29;;;;;;;0.90;0.90;;;;;;;;;;5022999;28;20223;-64
2022/08/13 10:11:58;;;;;;;0.90;0.90;;;;;;;;;;5039027;28;20383;-56
2022/08/13 10:14:24;;;;;;;1.10;1.10;;;;;;;;;;5033207;28;20302;-57
2022/08/13 10:16:50;;;;;;;1.10;1.10;;;;;;;;;;5031641;28;20232;-58
2022/08/13 10:19:16;;;;;;;1.27;1.27;;;;;;;;;;5021099;28;20246;-59
2022/08/13 10:21:43;;;;;;;1.00;1.00;;;;;;;;;;5033313;28;20234;-58
2022/08/13 10:24:09;;;;;;;1.05;1.05;;;;;;;;;;5027427;28;20215;-59
2022/08/13 10:26:36;;;;;;;1.10;1.10;;;;;;;;;;5008723;28;21105;-60
2022/08/13 10:29:03;;;;;;;1.10;1.10;;;;;;;;;;5034366;28;20219;-59
2022/08/13 10:31:29;;;;;;;1.02;1.02;;;;;;;;;;5040980;28;20220;-59
2022/08/13 10:33:58;;;;;;;1.10;1.10;;;;;;;;;;5032261;28;20227;-59
2022/08/13 10:36:25;;;;;;;1.05;1.05;;;;;;;;;;5037270;28;20236;-59
2022/08/13 10:38:51;;;;;;;1.02;1.02;;;;;;;;;;5036991;28;20218;-60
2022/08/13 10:41:17;;;;;;;1.17;1.17;;;;;;;;;;5022957;28;20228;-60
2022/08/13 10:43:43;;;;;;;1.25;1.25;;;;;;;;;;5030244;28;20219;-60
2022/08/13 10:46:16;;;;;;;1.10;1.10;;;;;;;;;;5037568;28;20250;-59
2022/08/13 10:48:42;;;;;;;1.10;1.10;;;;;;;;;;5022237;28;20316;-58
2022/08/13 10:51:08;;;;;;;1.00;1.00;;;;;;;;;;5034717;28;20224;-61
2022/08/13 10:56:19;;;;;;;1.05;1.05;;;;;;;;;;5026951;28;20244;-60
2022/08/13 10:58:45;;;;;;;1.13;1.13;;;;;;;;;;5037050;28;20209;-61
2022/08/13 11:01:11;;;;;;;1.10;1.10;;;;;;;;;;5010672;28;20227;-62
2022/08/13 11:03:37;;;;;;;0.90;0.90;;;;;;;;;;5031537;28;20731;-60
2022/08/13 11:06:04;;;;;;;1.00;1.00;;;;;;;;;;5013466;28;20947;-60
2022/08/13 11:08:37;;;;;;;1.13;1.13;;;;;;;;;;5018322;28;20215;-62
2022/08/13 11:11:04;;;;;;;1.00;1.00;;;;;;;;;;5027785;28;20234;-61
2022/08/13 11:13:31;;;;;;;1.10;1.10;;;;;;;;;;5021716;28;20229;-60
2022/08/13 11:15:58;;;;;;;1.10;1.10;;;;;;;;;;5029382;28;20681;-61
2022/08/13 11:18:26;;;;;;;1.00;1.00;;;;;;;;;;5019936;28;20448;-60
2022/08/13 11:21:06;;;;;;;1.00;1.00;;;;;;;;;;5017927;28;20684;-61
2022/08/13 11:23:32;;;;;;;1.08;1.08;;;;;;;;;;5018140;28;20246;-61
2022/08/13 11:25:58;;;;;;;1.00;1.00;;;;;;;;;;5021255;28;20220;-60
2022/08/13 11:28:24;;;;;;;0.80;0.80;;;;;;;;;;5030483;28;20328;-60
2022/08/13 11:30:51;;;;;;;0.90;0.90;;;;;;;;;;5023342;28;20839;-61
2022/08/13 11:33:17;;;;;;;0.90;0.90;;;;;;;;;;5029012;28;20877;-60
2022/08/13 11:35:43;;;;;;;1.00;1.00;;;;;;;;;;5015838;28;20228;-60
2022/08/13 11:38:09;;;;;;;0.80;0.80;;;;;;;;;;5024490;28;20224;-61
2022/08/13 11:40:35;;;;;;;0.80;0.80;;;;;;;;;;5018256;28;20266;-60
2022/08/13 11:43:01;;;;;;;0.88;0.88;;;;;;;;;;5018629;28;20742;-61
2022/08/13 11:45:27;;;;;;;0.88;0.88;;;;;;;;;;5022045;28;20236;-61
2022/08/13 11:47:53;;;;;;;0.80;0.80;;;;;;;;;;5021235;28;20278;-60
2022/08/13 11:50:19;;;;;;;0.90;0.90;;;;;;;;;;5011847;28;20296;-60
2022/08/13 11:52:45;;;;;;;0.90;0.90;;;;;;;;;;5018305;28;20922;-61
2022/08/13 11:55:11;;;;;;;0.80;0.80;;;;;;;;;;5032460;27;20270;-60
2022/08/13 11:57:37;;;;;;;1.00;1.00;;;;;;;;;;5034558;28;20710;-61
2022/08/13 12:00:23;;;;;;;1.10;1.10;;;;;;;;;;5028326;28;20319;-62
2022/08/13 12:02:49;;;;;;;0.80;0.80;;;;;;;;;;5020152;28;20721;-60
2022/08/13 12:05:15;;;;;;;0.85;0.85;;;;;;;;;;5018084;28;20225;-63
2022/08/13 12:07:41;;;;;;;0.90;0.90;;;;;;;;;;5024643;28;20929;-62
2022/08/13 12:10:07;;;;;;;1.00;1.00;;;;;;;;;;5019481;28;20272;-63
2022/08/13 12:12:33;;;;;;;0.90;0.90;;;;;;;;;;5007087;28;20760;-62
2022/08/13 12:14:59;;;;;;;0.90;0.90;;;;;;;;;;5014350;28;20812;-63
2022/08/13 12:17:27;;;;;;;0.90;0.90;;;;;;;;;;5025782;28;20243;-62
2022/08/13 12:19:53;;;;;;;0.90;0.90;;;;;;;;;;5031681;28;20224;-62
2022/08/13 12:22:19;;;;;;;1.00;1.00;;;;;;;;;;5021468;28;21172;-63
2022/08/13 12:24:45;;;;;;;1.10;1.10;;;;;;;;;;5029823;28;20215;-62
2022/08/13 12:27:11;;;;;;;1.05;1.05;;;;;;;;;;5035851;27;20224;-62
2022/08/13 12:29:37;;;;;;;0.95;0.95;;;;;;;;;;5020059;28;20273;-62
2022/08/13 12:32:03;;;;;;;1.00;1.00;;;;;;;;;;5019225;28;20244;-62
2022/08/13 12:34:29;;;;;;;1.00;1.00;;;;;;;;;;5023740;28;20626;-62
2022/08/13 12:36:55;;;;;;;1.00;1.00;;;;;;;;;;5024861;28;20240;-62
2022/08/13 12:39:21;;;;;;;1.00;1.00;;;;;;;;;;5019273;28;20342;-61
2022/08/13 12:41:46;;;;;;;1.00;1.00;;;;;;;;;;5021422;28;20735;-62
2022/08/13 12:44:13;;;;;;;0.98;0.98;;;;;;;;;;5026436;28;20216;-62
2022/08/13 12:46:38;;;;;;;1.00;1.00;;;;;;;;;;5028665;28;20762;-62
2022/08/13 12:49:05;;;;;;;0.90;0.90;;;;;;;;;;5031700;28;20214;-61
2022/08/13 12:51:31;;;;;;;1.00;1.00;;;;;;;;;;5033418;28;20289;-62
2022/08/13 12:53:57;;;;;;;1.10;1.10;;;;;;;;;;5037453;27;20221;-62
2022/08/13 12:56:23;;;;;;;0.93;0.93;;;;;;;;;;5022351;28;20231;-62
2022/08/13 12:58:48;;;;;;;0.82;0.82;;;;;;;;;;5020628;28;20215;-62
2022/08/13 13:01:14;;;;;;;0.98;0.98;;;;;;;;;;5022799;28;20576;-62
2022/08/13 13:03:40;;;;;;;0.85;0.85;;;;;;;;;;5011641;28;20211;-62
2022/08/13 13:06:06;;;;;;;1.02;1.02;;;;;;;;;;5004346;28;20236;-63
2022/08/13 13:08:32;;;;;;;0.80;0.80;;;;;;;;;;5027506;28;20246;-63
2022/08/13 13:10:59;;;;;;;1.20;1.20;;;;;;;;;;5033663;28;20728;-62
2022/08/13 13:13:26;;;;;;;1.20;1.20;;;;;;;;;;5029214;28;20271;-62
2022/08/13 13:15:56;;;;;;;1.27;1.27;;;;;;;;;;5026268;28;20310;-62
2022/08/13 13:18:24;;;;;;;1.10;1.10;;;;;;;;;;5019887;28;20228;-62
2022/08/13 13:20:50;;;;;;;1.20;1.20;;;;;;;;;;5047696;28;20224;-62
2022/08/13 13:23:17;;;;;;;1.20;1.20;;;;;;;;;;5019349;28;20510;-63
2022/08/13 13:25:44;;;;;;;1.30;1.30;;;;;;;;;;5014716;28;20338;-63
2022/08/13 13:28:10;;;;;;;1.40;1.40;;;;;;;;;;5019077;28;20237;-62
2022/08/13 13:30:36;;;;;;;1.10;1.10;;;;;;;;;;5027959;28;20225;-63
2022/08/13 13:33:03;;;;;;;1.05;1.05;;;;;;;;;;5008816;28;20328;-62
2022/08/13 13:35:29;;;;;;;1.45;1.45;;;;;;;;;;5023371;28;20824;-65
2022/08/13 13:37:55;;;;;;;1.52;1.52;;;;;;;;;;5028029;28;21024;-62
2022/08/13 13:40:21;;;;;;;1.50;1.50;;;;;;;;;;5025301;28;20888;-62
2022/08/13 13:42:47;;;;;;;1.90;1.80;;;;;;;;;;5016179;28;20232;-62
2022/08/13 13:45:13;;;;;;;1.40;1.40;;;;;;;;;;5018411;28;20224;-62
2022/08/13 13:47:39;;;;;;;1.60;1.60;;;;;;;;;;5020883;28;20555;-62
2022/08/13 13:50:06;;;;;;;1.50;1.50;;;;;;;;;;5013256;28;20289;-62
2022/08/13 13:52:32;;;;;;;1.50;1.50;;;;;;;;;;5027963;28;20225;-62
2022/08/13 13:54:58;;;;;;;1.40;1.40;;;;;;;;;;5028915;28;20275;-62
2022/08/13 13:57:27;;;;;;;1.40;1.40;;;;;;;;;;5017213;28;20224;-62
2022/08/13 13:59:53;;;;;;;1.50;1.50;;;;;;;;;;5025730;28;20216;-62
2022/08/13 14:02:19;;;;;;;1.42;1.42;;;;;;;;;;5004831;28;20241;-62
2022/08/13 14:04:45;;;;;;;1.50;1.50;;;;;;;;;;5024993;28;20247;-61
2022/08/13 14:07:11;;;;;;;1.60;1.60;;;;;;;;;;5012133;28;20227;-62
2022/08/13 14:09:40;;;;;;;1.48;1.48;;;;;;;;;;5017324;28;20265;-62
2022/08/13 14:12:06;;;;;;;1.40;1.40;;;;;;;;;;5015634;28;20218;-62
2022/08/13 14:14:32;;;;;;;1.58;1.58;;;;;;;;;;5009780;28;20252;-67
2022/08/13 14:17:00;;;;;;;1.42;1.42;;;;;;;;;;5017314;28;20231;-62
2022/08/13 14:19:26;;;;;;;1.50;1.50;;;;;;;;;;4998275;28;20272;-61
2022/08/13 14:21:52;;;;;;;1.40;1.40;;;;;;;;;;5019974;28;20220;-61
2022/08/13 14:24:19;;;;;;;1.40;1.40;;;;;;;;;;5027968;28;20228;-62
2022/08/13 14:26:45;;;;;;;1.45;1.45;;;;;;;;;;5016999;28;20227;-62
2022/08/13 14:29:12;;;;;;;1.20;1.20;;;;;;;;;;5019092;28;20224;-62
2022/08/13 14:31:37;;;;;;;1.35;1.35;;;;;;;;;;5020790;28;20673;-62
2022/08/13 14:34:04;;;;;;;1.40;1.40;;;;;;;;;;5019641;28;20231;-61
2022/08/13 14:36:31;;;;;;;1.40;1.40;;;;;;;;;;4997637;28;20692;-62
2022/08/13 14:38:57;;;;;;;1.50;1.50;;;;;;;;;;5017666;28;20216;-61
2022/08/13 14:41:23;;;;;;;1.30;1.30;;;;;;;;;;5030349;28;20748;-62
2022/08/13 14:43:52;;;;;;;1.40;1.40;;;;;;;;;;5023448;28;20310;-62
2022/08/13 14:46:18;;;;;;;1.30;1.30;;;;;;;;;;5042474;28;20225;-62
2022/08/13 14:48:44;;;;;;;1.42;1.42;;;;;;;;;;5038417;28;20227;-62
2022/08/13 14:51:10;;;;;;;1.50;1.50;;;;;;;;;;5025409;28;20229;-62
2022/08/13 14:53:36;;;;;;;1.40;1.40;;;;;;;;;;5021582;28;20224;-63
2022/08/13 14:56:03;;;;;;;1.20;1.20;;;;;;;;;;5022841;28;20243;-62
2022/08/13 14:58:30;;;;;;;1.20;1.20;;;;;;;;;;5007334;28;20249;-61
2022/08/13 15:00:56;;;;;;;1.17;1.17;;;;;;;;;;5015033;28;20231;-62
2022/08/13 15:03:23;;;;;;;1.10;1.10;;;;;;;;;;5018681;28;20228;-62
2022/08/13 15:05:50;;;;;;;1.10;1.10;;;;;;;;;;5009371;28;20233;-62
2022/08/13 15:08:17;;;;;;;1.20;1.20;;;;;;;;;;5020275;28;20556;-62
2022/08/13 15:10:43;;;;;;;1.10;1.10;;;;;;;;;;4997587;28;20227;-61
2022/08/13 15:13:10;;;;;;;1.20;1.20;;;;;;;;;;5006970;28;20689;-61
2022/08/13 15:15:36;;;;;;;1.10;1.10;;;;;;;;;;5017863;28;20270;-61
2022/08/13 15:18:02;;;;;;;1.00;1.00;;;;;;;;;;5032535;28;20991;-62
2022/08/13 15:20:29;;;;;;;1.20;1.20;;;;;;;;;;5018208;28;20227;-62
2022/08/13 15:22:56;;;;;;;1.10;1.10;;;;;;;;;;5024472;28;20227;-62
2022/08/13 15:25:23;;;;;;;1.00;1.00;;;;;;;;;;5020879;28;20724;-63
2022/08/13 15:27:53;;;;;;;1.13;1.13;;;;;;;;;;5009473;28;20288;-63
2022/08/13 15:30:20;;;;;;;1.10;1.10;;;;;;;;;;5012222;28;20225;-63
2022/08/13 15:32:47;;;;;;;1.20;1.20;;;;;;;;;;5005744;28;20229;-62
2022/08/13 15:35:13;;;;;;;1.17;1.17;;;;;;;;;;5025158;28;20242;-62
2022/08/13 15:37:40;;;;;;;1.20;1.20;;;;;;;;;;5021066;28;20254;-63
2022/08/13 15:40:06;;;;;;;1.30;1.30;;;;;;;;;;5019445;28;20224;-62
2022/08/13 15:42:32;;;;;;;1.33;1.33;;;;;;;;;;5010804;28;20659;-63
2022/08/13 15:44:58;;;;;;;1.38;1.38;;;;;;;;;;5029534;28;20222;-62
2022/08/13 15:47:24;;;;;;;1.20;1.20;;;;;;;;;;5018707;28;20949;-63
2022/08/13 15:49:52;;;;;;;1.20;1.20;;;;;;;;;;5016810;28;20231;-63
2022/08/13 15:52:19;;;;;;;1.17;1.17;;;;;;;;;;5015148;28;21001;-63
2022/08/13 15:54:45;;;;;;;1.40;1.40;;;;;;;;;;5031465;28;20223;-62
2022/08/13 15:57:11;;;;;;;1.30;1.30;;;;;;;;;;5036415;28;20232;-64
2022/08/13 15:59:38;;;;;;;1.20;1.20;;;;;;;;;;5019771;28;20221;-63
2022/08/13 16:02:04;;;;;;;1.30;1.30;;;;;;;;;;5028783;28;20653;-64
2022/08/13 16:04:30;;;;;;;1.30;1.30;;;;;;;;;;5026377;28;20255;-64
2022/08/13 16:06:58;;;;;;;1.30;1.30;;;;;;;;;;5027188;28;20664;-64
2022/08/13 16:09:24;;;;;;;1.42;1.42;;;;;;;;;;5029892;28;20573;-64
2022/08/13 16:11:50;;;;;;;1.23;1.23;;;;;;;;;;5022286;28;20262;-64
2022/08/13 16:14:18;;;;;;;1.30;1.30;;;;;;;;;;5022308;28;20921;-64
2022/08/13 16:16:44;;;;;;;1.23;1.23;;;;;;;;;;5032508;28;20674;-64
2022/08/13 16:19:10;;;;;;;1.30;1.30;;;;;;;;;;5025933;28;20298;-64
2022/08/13 16:21:43;;;;;;;1.30;1.30;;;;;;;;;;5023675;28;20696;-64
2022/08/13 16:24:09;;;;;;;1.20;1.20;;;;;;;;;;5020016;28;20224;-65
2022/08/13 16:26:36;;;;;;;1.20;1.20;;;;;;;;;;5025181;28;20794;-65
2022/08/13 16:29:02;;;;;;;1.20;1.20;;;;;;;;;;4992950;28;20231;-62
2022/08/13 16:31:32;;;;;;;1.33;1.33;;;;;;;;;;4993133;28;20232;-62
2022/08/13 16:33:59;;;;;;;1.20;1.20;;;;;;;;;;5004825;28;20339;-62
2022/08/13 16:36:25;;;;;;;1.10;1.10;;;;;;;;;;4987951;28;20272;-62
2022/08/13 16:38:52;;;;;;;1.15;1.15;;;;;;;;;;5008165;28;20219;-62
2022/08/13 16:41:18;;;;;;;1.20;1.20;;;;;;;;;;5019035;28;20824;-62
2022/08/13 16:43:45;;;;;;;1.30;1.30;;;;;;;;;;5007380;28;20231;-62
2022/08/13 16:46:11;;;;;;;1.20;1.20;;;;;;;;;;5013990;28;20223;-62
2022/08/13 16:48:38;;;;;;;1.20;1.20;;;;;;;;;;5022377;28;20227;-62
2022/08/13 16:51:04;;;;;;;1.30;1.30;;;;;;;;;;4996250;28;20303;-62
2022/08/13 16:53:30;;;;;;;1.40;1.40;;;;;;;;;;5018440;28;20503;-62
2022/08/13 16:55:57;;;;;;;1.38;1.38;;;;;;;;;;5013829;28;20760;-62
2022/08/13 16:58:23;;;;;;;1.30;1.30;;;;;;;;;;5026359;28;20304;-62